sensor_id;sensor_type;location;lat;lon;timestamp;P1;durP1;ratioP1;P2;durP2;ratioP2
64653;SDS011;51065;48.884;12.598;2023-02-15T00:01:39;25.27;;;8.90;;
64653;SDS011;51065;48.884;12.598;2023-02-15T00:04:05;27.45;;;8.60;;
64653;SDS011;51065;48.884;12.598;2023-02-15T00:06:32;24.42;;;8.40;;
64653;SDS011;51065;48.884;12.598;2023-02-15T00:08:58;26.70;;;9.50;;
64653;SDS011;51065;48.884;12.598;2023-02-15T00:11:24;29.33;;;9.32;;
64653;SDS011;51065;48.884;12.598;2023-02-15T00:16:31;27.80;;;9.15;;
64653;SDS011;51065;48.884;12.598;2023-02-15T00:18:57;32.85;;;9.52;;
64653;SDS011;51065;48.884;12.598;2023-02-15T00:21:26;35.10;;;10.15;;
64653;SDS011;51065;48.884;12.598;2023-02-15T00:23:57;32.38;;;9.82;;
64653;SDS011;51065;48.884;12.598;2023-02-15T00:26:23;30.55;;;9.75;;
64653;SDS011;51065;48.884;12.598;2023-02-15T00:28:49;29.13;;;9.25;;
64653;SDS011;51065;48.884;12.598;2023-02-15T00:31:15;31.35;;;9.10;;
64653;SDS011;51065;48.884;12.598;2023-02-15T00:33:40;31.75;;;8.48;;
64653;SDS011;51065;48.884;12.598;2023-02-15T00:36:07;30.85;;;9.65;;
64653;SDS011;51065;48.884;12.598;2023-02-15T00:38:34;31.50;;;9.57;;
64653;SDS011;51065;48.884;12.598;2023-02-15T00:41:01;31.20;;;9.77;;
64653;SDS011;51065;48.884;12.598;2023-02-15T00:43:28;27.23;;;8.70;;
64653;SDS011;51065;48.884;12.598;2023-02-15T00:45:55;29.48;;;9.13;;
64653;SDS011;51065;48.884;12.598;2023-02-15T00:48:20;27.98;;;8.93;;
64653;SDS011;51065;48.884;12.598;2023-02-15T00:50:48;27.42;;;8.35;;
64653;SDS011;51065;48.884;12.598;2023-02-15T00:53:16;27.77;;;8.80;;
64653;SDS011;51065;48.884;12.598;2023-02-15T00:55:41;27.67;;;8.73;;
64653;SDS011;51065;48.884;12.598;2023-02-15T00:58:08;31.75;;;9.57;;
64653;SDS011;51065;48.884;12.598;2023-02-15T01:00:34;29.65;;;9.45;;
64653;SDS011;51065;48.884;12.598;2023-02-15T01:03:00;31.13;;;9.82;;
64653;SDS011;51065;48.884;12.598;2023-02-15T01:05:26;28.42;;;9.00;;
64653;SDS011;51065;48.884;12.598;2023-02-15T01:07:51;26.10;;;8.43;;
64653;SDS011;51065;48.884;12.598;2023-02-15T01:10:17;26.92;;;8.68;;
64653;SDS011;51065;48.884;12.598;2023-02-15T01:12:42;27.80;;;8.55;;
64653;SDS011;51065;48.884;12.598;2023-02-15T01:15:08;30.90;;;8.90;;
64653;SDS011;51065;48.884;12.598;2023-02-15T01:17:34;29.45;;;8.18;;
64653;SDS011;51065;48.884;12.598;2023-02-15T01:20:00;28.27;;;8.55;;
64653;SDS011;51065;48.884;12.598;2023-02-15T01:22:26;27.17;;;8.55;;
64653;SDS011;51065;48.884;12.598;2023-02-15T01:24:51;31.35;;;8.82;;
64653;SDS011;51065;48.884;12.598;2023-02-15T01:27:17;30.98;;;9.55;;
64653;SDS011;51065;48.884;12.598;2023-02-15T01:29:43;29.17;;;8.55;;
64653;SDS011;51065;48.884;12.598;2023-02-15T01:32:09;25.67;;;9.02;;
64653;SDS011;51065;48.884;12.598;2023-02-15T01:34:34;27.50;;;9.02;;
64653;SDS011;51065;48.884;12.598;2023-02-15T01:37:00;29.00;;;8.63;;
64653;SDS011;51065;48.884;12.598;2023-02-15T01:39:25;25.77;;;7.57;;
64653;SDS011;51065;48.884;12.598;2023-02-15T01:41:51;29.80;;;8.82;;
64653;SDS011;51065;48.884;12.598;2023-02-15T01:44:40;32.00;;;9.50;;
64653;SDS011;51065;48.884;12.598;2023-02-15T01:47:11;25.90;;;9.15;;
64653;SDS011;51065;48.884;12.598;2023-02-15T01:49:40;26.17;;;7.60;;
64653;SDS011;51065;48.884;12.598;2023-02-15T01:52:09;29.88;;;8.95;;
64653;SDS011;51065;48.884;12.598;2023-02-15T01:54:37;32.88;;;8.63;;
64653;SDS011;51065;48.884;12.598;2023-02-15T01:57:08;23.13;;;7.13;;
64653;SDS011;51065;48.884;12.598;2023-02-15T01:59:36;24.55;;;8.23;;
64653;SDS011;51065;48.884;12.598;2023-02-15T02:02:04;24.70;;;7.85;;
64653;SDS011;51065;48.884;12.598;2023-02-15T02:04:35;25.20;;;7.88;;
64653;SDS011;51065;48.884;12.598;2023-02-15T02:07:06;27.45;;;8.23;;
64653;SDS011;51065;48.884;12.598;2023-02-15T02:09:35;24.85;;;7.45;;
64653;SDS011;51065;48.884;12.598;2023-02-15T02:12:01;29.17;;;8.75;;
64653;SDS011;51065;48.884;12.598;2023-02-15T02:14:27;23.55;;;8.18;;
64653;SDS011;51065;48.884;12.598;2023-02-15T02:28:27;27.77;;;8.70;;
64653;SDS011;51065;48.884;12.598;2023-02-15T02:36:50;29.17;;;8.82;;
64653;SDS011;51065;48.884;12.598;2023-02-15T02:45:35;24.92;;;7.70;;
64653;SDS011;51065;48.884;12.598;2023-02-15T02:47:56;26.98;;;9.15;;
64653;SDS011;51065;48.884;12.598;2023-02-15T02:50:27;24.20;;;7.38;;
64653;SDS011;51065;48.884;12.598;2023-02-15T02:52:55;24.50;;;7.35;;
64653;SDS011;51065;48.884;12.598;2023-02-15T02:55:23;25.85;;;8.38;;
64653;SDS011;51065;48.884;12.598;2023-02-15T02:58:02;27.77;;;7.32;;
64653;SDS011;51065;48.884;12.598;2023-02-15T03:00:36;24.45;;;8.05;;
64653;SDS011;51065;48.884;12.598;2023-02-15T03:03:09;22.83;;;7.10;;
64653;SDS011;51065;48.884;12.598;2023-02-15T03:05:50;26.17;;;8.90;;
64653;SDS011;51065;48.884;12.598;2023-02-15T03:08:19;22.63;;;7.93;;
64653;SDS011;51065;48.884;12.598;2023-02-15T03:10:52;25.05;;;8.20;;
64653;SDS011;51065;48.884;12.598;2023-02-15T03:13:20;25.02;;;7.03;;
64653;SDS011;51065;48.884;12.598;2023-02-15T03:15:47;22.60;;;7.72;;
64653;SDS011;51065;48.884;12.598;2023-02-15T03:18:39;26.48;;;8.77;;
64653;SDS011;51065;48.884;12.598;2023-02-15T03:21:22;23.83;;;8.05;;
64653;SDS011;51065;48.884;12.598;2023-02-15T03:23:57;22.50;;;7.78;;
64653;SDS011;51065;48.884;12.598;2023-02-15T03:26:34;22.38;;;7.35;;
64653;SDS011;51065;48.884;12.598;2023-02-15T03:29:03;22.52;;;7.38;;
64653;SDS011;51065;48.884;12.598;2023-02-15T03:31:31;25.73;;;7.13;;
64653;SDS011;51065;48.884;12.598;2023-02-15T03:34:02;22.67;;;7.57;;
64653;SDS011;51065;48.884;12.598;2023-02-15T03:36:34;25.02;;;7.43;;
64653;SDS011;51065;48.884;12.598;2023-02-15T03:42:13;25.25;;;8.88;;
64653;SDS011;51065;48.884;12.598;2023-02-15T03:44:51;19.40;;;6.93;;
64653;SDS011;51065;48.884;12.598;2023-02-15T03:47:37;22.85;;;7.13;;
64653;SDS011;51065;48.884;12.598;2023-02-15T03:50:19;23.15;;;7.57;;
64653;SDS011;51065;48.884;12.598;2023-02-15T03:53:07;21.95;;;7.68;;
64653;SDS011;51065;48.884;12.598;2023-02-15T03:55:36;25.85;;;7.10;;
64653;SDS011;51065;48.884;12.598;2023-02-15T03:58:02;21.67;;;6.97;;
64653;SDS011;51065;48.884;12.598;2023-02-15T04:00:53;21.90;;;6.40;;
64653;SDS011;51065;48.884;12.598;2023-02-15T04:03:45;23.40;;;7.63;;
64653;SDS011;51065;48.884;12.598;2023-02-15T04:06:20;22.73;;;6.78;;
64653;SDS011;51065;48.884;12.598;2023-02-15T04:08:45;23.25;;;6.55;;
64653;SDS011;51065;48.884;12.598;2023-02-15T04:11:30;19.95;;;6.43;;
64653;SDS011;51065;48.884;12.598;2023-02-15T04:13:55;25.52;;;7.70;;
64653;SDS011;51065;48.884;12.598;2023-02-15T04:16:25;20.67;;;6.72;;
64653;SDS011;51065;48.884;12.598;2023-02-15T04:18:51;25.25;;;7.30;;
64653;SDS011;51065;48.884;12.598;2023-02-15T04:21:35;18.48;;;6.15;;
64653;SDS011;51065;48.884;12.598;2023-02-15T04:24:19;22.50;;;6.95;;
64653;SDS011;51065;48.884;12.598;2023-02-15T04:27:04;29.88;;;7.97;;
64653;SDS011;51065;48.884;12.598;2023-02-15T04:29:30;23.67;;;7.35;;
64653;SDS011;51065;48.884;12.598;2023-02-15T04:31:58;22.98;;;7.65;;
64653;SDS011;51065;48.884;12.598;2023-02-15T04:34:26;23.77;;;7.53;;
64653;SDS011;51065;48.884;12.598;2023-02-15T04:36:52;22.85;;;7.03;;
64653;SDS011;51065;48.884;12.598;2023-02-15T04:39:18;23.63;;;7.65;;
64653;SDS011;51065;48.884;12.598;2023-02-15T04:41:44;24.63;;;7.30;;
64653;SDS011;51065;48.884;12.598;2023-02-15T04:44:10;21.38;;;7.15;;
64653;SDS011;51065;48.884;12.598;2023-02-15T04:46:36;21.13;;;7.20;;
64653;SDS011;51065;48.884;12.598;2023-02-15T04:49:02;18.70;;;6.55;;
64653;SDS011;51065;48.884;12.598;2023-02-15T04:51:28;24.58;;;7.28;;
64653;SDS011;51065;48.884;12.598;2023-02-15T04:53:53;21.60;;;6.85;;
64653;SDS011;51065;48.884;12.598;2023-02-15T04:56:19;25.27;;;7.72;;
64653;SDS011;51065;48.884;12.598;2023-02-15T04:58:45;25.60;;;7.18;;
64653;SDS011;51065;48.884;12.598;2023-02-15T05:01:11;22.08;;;7.07;;
64653;SDS011;51065;48.884;12.598;2023-02-15T05:03:37;27.10;;;7.13;;
64653;SDS011;51065;48.884;12.598;2023-02-15T05:06:03;21.38;;;6.97;;
64653;SDS011;51065;48.884;12.598;2023-02-15T05:08:29;23.52;;;7.28;;
64653;SDS011;51065;48.884;12.598;2023-02-15T05:10:55;24.48;;;7.00;;
64653;SDS011;51065;48.884;12.598;2023-02-15T05:13:21;23.38;;;6.53;;
64653;SDS011;51065;48.884;12.598;2023-02-15T05:15:48;23.08;;;7.05;;
64653;SDS011;51065;48.884;12.598;2023-02-15T05:18:15;23.33;;;7.28;;
64653;SDS011;51065;48.884;12.598;2023-02-15T05:20:41;22.63;;;7.10;;
64653;SDS011;51065;48.884;12.598;2023-02-15T05:23:07;22.92;;;7.45;;
64653;SDS011;51065;48.884;12.598;2023-02-15T05:25:33;22.80;;;6.93;;
64653;SDS011;51065;48.884;12.598;2023-02-15T05:28:17;21.02;;;6.90;;
64653;SDS011;51065;48.884;12.598;2023-02-15T05:30:46;22.17;;;7.22;;
64653;SDS011;51065;48.884;12.598;2023-02-15T05:33:12;20.20;;;6.43;;
64653;SDS011;51065;48.884;12.598;2023-02-15T05:35:38;19.65;;;6.60;;
64653;SDS011;51065;48.884;12.598;2023-02-15T05:38:03;24.52;;;7.38;;
64653;SDS011;51065;48.884;12.598;2023-02-15T05:40:29;25.20;;;7.43;;
64653;SDS011;51065;48.884;12.598;2023-02-15T05:42:55;21.77;;;6.60;;
64653;SDS011;51065;48.884;12.598;2023-02-15T05:45:21;25.65;;;8.23;;
64653;SDS011;51065;48.884;12.598;2023-02-15T05:47:47;23.20;;;7.03;;
64653;SDS011;51065;48.884;12.598;2023-02-15T05:50:12;22.52;;;6.28;;
64653;SDS011;51065;48.884;12.598;2023-02-15T05:52:38;21.63;;;7.07;;
64653;SDS011;51065;48.884;12.598;2023-02-15T05:55:04;24.73;;;6.93;;
64653;SDS011;51065;48.884;12.598;2023-02-15T05:57:30;26.92;;;7.40;;
64653;SDS011;51065;48.884;12.598;2023-02-15T05:59:55;21.75;;;6.32;;
64653;SDS011;51065;48.884;12.598;2023-02-15T06:02:21;20.92;;;6.35;;
64653;SDS011;51065;48.884;12.598;2023-02-15T06:04:47;24.90;;;7.55;;
64653;SDS011;51065;48.884;12.598;2023-02-15T06:07:12;28.60;;;7.22;;
64653;SDS011;51065;48.884;12.598;2023-02-15T06:09:38;26.25;;;8.88;;
64653;SDS011;51065;48.884;12.598;2023-02-15T06:12:04;24.02;;;8.52;;
64653;SDS011;51065;48.884;12.598;2023-02-15T06:14:29;21.55;;;8.27;;
64653;SDS011;51065;48.884;12.598;2023-02-15T06:16:55;22.67;;;7.63;;
64653;SDS011;51065;48.884;12.598;2023-02-15T06:19:21;26.73;;;8.77;;
64653;SDS011;51065;48.884;12.598;2023-02-15T06:21:47;28.25;;;8.43;;
64653;SDS011;51065;48.884;12.598;2023-02-15T06:24:13;25.30;;;7.65;;
64653;SDS011;51065;48.884;12.598;2023-02-15T06:26:39;24.58;;;8.23;;
64653;SDS011;51065;48.884;12.598;2023-02-15T06:29:04;23.67;;;7.57;;
64653;SDS011;51065;48.884;12.598;2023-02-15T06:31:30;23.85;;;7.90;;
64653;SDS011;51065;48.884;12.598;2023-02-15T06:33:55;21.60;;;6.95;;
64653;SDS011;51065;48.884;12.598;2023-02-15T06:36:26;26.08;;;8.18;;
64653;SDS011;51065;48.884;12.598;2023-02-15T06:38:53;26.65;;;8.32;;
64653;SDS011;51065;48.884;12.598;2023-02-15T06:41:18;25.92;;;7.75;;
64653;SDS011;51065;48.884;12.598;2023-02-15T06:43:54;26.95;;;8.02;;
64653;SDS011;51065;48.884;12.598;2023-02-15T06:46:19;27.23;;;8.20;;
64653;SDS011;51065;48.884;12.598;2023-02-15T06:48:45;27.50;;;8.73;;
64653;SDS011;51065;48.884;12.598;2023-02-15T06:51:10;28.60;;;10.05;;
64653;SDS011;51065;48.884;12.598;2023-02-15T06:53:36;27.73;;;9.45;;
64653;SDS011;51065;48.884;12.598;2023-02-15T06:56:05;22.10;;;7.70;;
64653;SDS011;51065;48.884;12.598;2023-02-15T06:58:33;21.98;;;8.10;;
64653;SDS011;51065;48.884;12.598;2023-02-15T07:01:06;25.50;;;8.40;;
64653;SDS011;51065;48.884;12.598;2023-02-15T07:03:32;23.48;;;7.35;;
64653;SDS011;51065;48.884;12.598;2023-02-15T07:05:58;29.48;;;8.75;;
64653;SDS011;51065;48.884;12.598;2023-02-15T07:08:25;26.50;;;8.65;;
64653;SDS011;51065;48.884;12.598;2023-02-15T07:10:52;29.60;;;8.30;;
64653;SDS011;51065;48.884;12.598;2023-02-15T07:13:18;22.35;;;7.63;;
64653;SDS011;51065;48.884;12.598;2023-02-15T07:15:44;22.73;;;8.05;;
64653;SDS011;51065;48.884;12.598;2023-02-15T07:18:10;24.13;;;8.48;;
64653;SDS011;51065;48.884;12.598;2023-02-15T07:20:37;24.42;;;7.13;;
64653;SDS011;51065;48.884;12.598;2023-02-15T07:23:03;21.90;;;7.85;;
64653;SDS011;51065;48.884;12.598;2023-02-15T07:25:29;21.67;;;6.88;;
64653;SDS011;51065;48.884;12.598;2023-02-15T07:27:59;23.25;;;7.65;;
64653;SDS011;51065;48.884;12.598;2023-02-15T07:30:27;25.00;;;9.27;;
64653;SDS011;51065;48.884;12.598;2023-02-15T07:32:56;25.02;;;8.27;;
64653;SDS011;51065;48.884;12.598;2023-02-15T07:35:50;25.65;;;9.25;;
64653;SDS011;51065;48.884;12.598;2023-02-15T07:38:17;25.60;;;9.52;;
64653;SDS011;51065;48.884;12.598;2023-02-15T07:40:44;24.33;;;7.95;;
64653;SDS011;51065;48.884;12.598;2023-02-15T07:43:10;22.45;;;7.65;;
64653;SDS011;51065;48.884;12.598;2023-02-15T07:45:36;24.77;;;8.65;;
64653;SDS011;51065;48.884;12.598;2023-02-15T07:48:02;23.73;;;7.20;;
64653;SDS011;51065;48.884;12.598;2023-02-15T07:50:28;25.05;;;7.90;;
64653;SDS011;51065;48.884;12.598;2023-02-15T07:52:54;23.70;;;6.35;;
64653;SDS011;51065;48.884;12.598;2023-02-15T07:55:19;21.40;;;7.70;;
64653;SDS011;51065;48.884;12.598;2023-02-15T07:57:46;20.05;;;7.43;;
64653;SDS011;51065;48.884;12.598;2023-02-15T08:00:13;23.00;;;8.00;;
64653;SDS011;51065;48.884;12.598;2023-02-15T08:02:40;21.58;;;7.70;;
64653;SDS011;51065;48.884;12.598;2023-02-15T08:05:06;27.58;;;8.23;;
64653;SDS011;51065;48.884;12.598;2023-02-15T08:07:32;25.30;;;7.75;;
64653;SDS011;51065;48.884;12.598;2023-02-15T08:09:57;24.38;;;8.10;;
64653;SDS011;51065;48.884;12.598;2023-02-15T08:12:25;25.42;;;8.82;;
64653;SDS011;51065;48.884;12.598;2023-02-15T08:14:51;24.02;;;7.85;;
64653;SDS011;51065;48.884;12.598;2023-02-15T08:17:17;26.75;;;7.88;;
64653;SDS011;51065;48.884;12.598;2023-02-15T08:19:43;26.48;;;8.05;;
64653;SDS011;51065;48.884;12.598;2023-02-15T08:22:10;20.50;;;7.90;;
64653;SDS011;51065;48.884;12.598;2023-02-15T08:24:38;23.38;;;7.50;;
64653;SDS011;51065;48.884;12.598;2023-02-15T08:27:07;24.45;;;8.25;;
64653;SDS011;51065;48.884;12.598;2023-02-15T08:29:35;25.48;;;9.20;;
64653;SDS011;51065;48.884;12.598;2023-02-15T08:32:03;26.80;;;9.20;;
64653;SDS011;51065;48.884;12.598;2023-02-15T08:34:32;24.10;;;7.90;;
64653;SDS011;51065;48.884;12.598;2023-02-15T08:37:07;26.88;;;8.27;;
64653;SDS011;51065;48.884;12.598;2023-02-15T08:39:33;21.95;;;7.63;;
64653;SDS011;51065;48.884;12.598;2023-02-15T08:41:59;21.67;;;6.97;;
64653;SDS011;51065;48.884;12.598;2023-02-15T08:44:24;24.13;;;8.38;;
64653;SDS011;51065;48.884;12.598;2023-02-15T08:46:50;22.30;;;7.30;;
64653;SDS011;51065;48.884;12.598;2023-02-15T08:49:17;20.10;;;7.45;;
64653;SDS011;51065;48.884;12.598;2023-02-15T08:51:44;22.00;;;7.25;;
64653;SDS011;51065;48.884;12.598;2023-02-15T08:54:14;18.95;;;6.47;;
64653;SDS011;51065;48.884;12.598;2023-02-15T08:56:42;22.23;;;7.75;;
64653;SDS011;51065;48.884;12.598;2023-02-15T08:59:17;22.15;;;8.45;;
64653;SDS011;51065;48.884;12.598;2023-02-15T09:01:44;22.40;;;8.35;;
64653;SDS011;51065;48.884;12.598;2023-02-15T09:04:10;19.67;;;7.43;;
64653;SDS011;51065;48.884;12.598;2023-02-15T09:06:38;18.80;;;6.93;;
64653;SDS011;51065;48.884;12.598;2023-02-15T09:09:05;21.75;;;7.57;;
64653;SDS011;51065;48.884;12.598;2023-02-15T09:11:36;21.80;;;7.45;;
64653;SDS011;51065;48.884;12.598;2023-02-15T09:14:11;23.20;;;8.57;;
64653;SDS011;51065;48.884;12.598;2023-02-15T09:16:38;21.52;;;8.05;;
64653;SDS011;51065;48.884;12.598;2023-02-15T09:19:05;21.40;;;7.05;;
64653;SDS011;51065;48.884;12.598;2023-02-15T09:21:31;24.02;;;7.22;;
64653;SDS011;51065;48.884;12.598;2023-02-15T09:24:01;18.67;;;6.93;;
64653;SDS011;51065;48.884;12.598;2023-02-15T09:26:29;23.10;;;9.30;;
64653;SDS011;51065;48.884;12.598;2023-02-15T09:28:56;24.67;;;7.75;;
64653;SDS011;51065;48.884;12.598;2023-02-15T09:31:24;21.88;;;7.55;;
64653;SDS011;51065;48.884;12.598;2023-02-15T09:33:52;23.20;;;7.93;;
64653;SDS011;51065;48.884;12.598;2023-02-15T09:38:47;22.08;;;8.00;;
64653;SDS011;51065;48.884;12.598;2023-02-15T09:45:09;26.17;;;8.45;;
64653;SDS011;51065;48.884;12.598;2023-02-15T09:47:36;24.75;;;8.68;;
64653;SDS011;51065;48.884;12.598;2023-02-15T10:15:44;26.52;;;7.20;;
64653;SDS011;51065;48.884;12.598;2023-02-15T10:18:34;24.30;;;7.75;;
64653;SDS011;51065;48.884;12.598;2023-02-15T10:21:23;22.63;;;8.00;;
64653;SDS011;51065;48.884;12.598;2023-02-15T10:27:11;23.45;;;7.80;;
64653;SDS011;51065;48.884;12.598;2023-02-15T10:29:39;24.70;;;8.13;;
64653;SDS011;51065;48.884;12.598;2023-02-15T10:32:27;23.13;;;8.65;;
64653;SDS011;51065;48.884;12.598;2023-02-15T10:35:11;26.88;;;9.43;;
64653;SDS011;51065;48.884;12.598;2023-02-15T10:38:08;24.88;;;8.32;;
64653;SDS011;51065;48.884;12.598;2023-02-15T10:40:51;26.48;;;8.73;;
64653;SDS011;51065;48.884;12.598;2023-02-15T10:46:25;25.70;;;8.82;;
64653;SDS011;51065;48.884;12.598;2023-02-15T10:52:22;23.95;;;8.73;;
64653;SDS011;51065;48.884;12.598;2023-02-15T10:55:13;23.17;;;8.57;;
64653;SDS011;51065;48.884;12.598;2023-02-15T10:58:04;26.52;;;8.55;;
64653;SDS011;51065;48.884;12.598;2023-02-15T11:00:45;27.90;;;8.98;;
64653;SDS011;51065;48.884;12.598;2023-02-15T11:03:29;28.02;;;9.93;;
64653;SDS011;51065;48.884;12.598;2023-02-15T11:06:19;27.85;;;8.55;;
64653;SDS011;51065;48.884;12.598;2023-02-15T11:08:50;23.02;;;8.45;;
64653;SDS011;51065;48.884;12.598;2023-02-15T11:11:38;23.50;;;8.48;;
64653;SDS011;51065;48.884;12.598;2023-02-15T11:17:06;25.48;;;8.48;;
64653;SDS011;51065;48.884;12.598;2023-02-15T11:19:39;27.10;;;10.13;;
64653;SDS011;51065;48.884;12.598;2023-02-15T11:22:26;23.50;;;8.00;;
64653;SDS011;51065;48.884;12.598;2023-02-15T11:24:51;29.05;;;9.75;;
64653;SDS011;51065;48.884;12.598;2023-02-15T11:27:23;26.15;;;10.13;;
64653;SDS011;51065;48.884;12.598;2023-02-15T11:29:58;25.52;;;8.32;;
64653;SDS011;51065;48.884;12.598;2023-02-15T11:35:00;28.48;;;8.48;;
64653;SDS011;51065;48.884;12.598;2023-02-15T11:37:39;24.83;;;8.23;;
64653;SDS011;51065;48.884;12.598;2023-02-15T11:40:30;25.92;;;9.30;;
64653;SDS011;51065;48.884;12.598;2023-02-15T11:43:10;24.38;;;9.27;;
64653;SDS011;51065;48.884;12.598;2023-02-15T11:45:41;29.83;;;10.60;;
64653;SDS011;51065;48.884;12.598;2023-02-15T11:48:10;28.08;;;11.13;;
64653;SDS011;51065;48.884;12.598;2023-02-15T11:50:37;29.40;;;10.07;;
64653;SDS011;51065;48.884;12.598;2023-02-15T11:53:04;27.02;;;9.50;;
64653;SDS011;51065;48.884;12.598;2023-02-15T11:55:36;23.67;;;8.38;;
64653;SDS011;51065;48.884;12.598;2023-02-15T12:03:55;25.38;;;9.70;;
64653;SDS011;51065;48.884;12.598;2023-02-15T12:06:41;29.95;;;9.27;;
64653;SDS011;51065;48.884;12.598;2023-02-15T12:14:49;21.70;;;7.85;;
64653;SDS011;51065;48.884;12.598;2023-02-15T12:17:16;27.48;;;9.15;;
64653;SDS011;51065;48.884;12.598;2023-02-15T12:19:43;26.15;;;8.82;;
64653;SDS011;51065;48.884;12.598;2023-02-15T12:22:23;27.75;;;9.43;;
64653;SDS011;51065;48.884;12.598;2023-02-15T12:24:54;26.27;;;9.07;;
64653;SDS011;51065;48.884;12.598;2023-02-15T12:27:27;26.85;;;9.13;;
64653;SDS011;51065;48.884;12.598;2023-02-15T12:30:06;21.90;;;8.68;;
64653;SDS011;51065;48.884;12.598;2023-02-15T12:32:51;23.60;;;8.90;;
64653;SDS011;51065;48.884;12.598;2023-02-15T12:35:29;22.17;;;8.55;;
64653;SDS011;51065;48.884;12.598;2023-02-15T12:38:00;22.67;;;8.20;;
64653;SDS011;51065;48.884;12.598;2023-02-15T12:40:35;23.65;;;8.30;;
64653;SDS011;51065;48.884;12.598;2023-02-15T12:43:02;24.00;;;7.82;;
64653;SDS011;51065;48.884;12.598;2023-02-15T12:45:34;26.15;;;9.77;;
64653;SDS011;51065;48.884;12.598;2023-02-15T12:48:14;25.83;;;10.07;;
64653;SDS011;51065;48.884;12.598;2023-02-15T12:50:42;22.05;;;8.07;;
64653;SDS011;51065;48.884;12.598;2023-02-15T12:53:20;25.98;;;8.18;;
64653;SDS011;51065;48.884;12.598;2023-02-15T12:55:58;24.65;;;7.82;;
64653;SDS011;51065;48.884;12.598;2023-02-15T12:58:29;24.45;;;8.23;;
64653;SDS011;51065;48.884;12.598;2023-02-15T13:03:35;25.08;;;9.48;;
64653;SDS011;51065;48.884;12.598;2023-02-15T13:06:02;26.42;;;9.65;;
64653;SDS011;51065;48.884;12.598;2023-02-15T13:08:33;25.13;;;9.75;;
64653;SDS011;51065;48.884;12.598;2023-02-15T13:11:05;26.17;;;9.57;;
64653;SDS011;51065;48.884;12.598;2023-02-15T13:13:35;26.73;;;9.80;;
64653;SDS011;51065;48.884;12.598;2023-02-15T13:16:15;25.73;;;8.90;;
64653;SDS011;51065;48.884;12.598;2023-02-15T13:18:45;24.00;;;8.48;;
64653;SDS011;51065;48.884;12.598;2023-02-15T13:21:13;27.65;;;9.45;;
64653;SDS011;51065;48.884;12.598;2023-02-15T13:23:44;26.85;;;8.95;;
64653;SDS011;51065;48.884;12.598;2023-02-15T13:26:17;29.75;;;9.63;;
64653;SDS011;51065;48.884;12.598;2023-02-15T13:28:47;26.50;;;9.10;;
64653;SDS011;51065;48.884;12.598;2023-02-15T13:33:44;28.33;;;9.85;;
64653;SDS011;51065;48.884;12.598;2023-02-15T13:36:22;25.02;;;9.55;;
64653;SDS011;51065;48.884;12.598;2023-02-15T13:41:33;29.00;;;9.48;;
64653;SDS011;51065;48.884;12.598;2023-02-15T13:44:12;27.27;;;10.48;;
64653;SDS011;51065;48.884;12.598;2023-02-15T13:49:39;23.45;;;8.43;;
64653;SDS011;51065;48.884;12.598;2023-02-15T13:59:54;22.00;;;8.05;;
64653;SDS011;51065;48.884;12.598;2023-02-15T14:03:16;25.88;;;8.55;;
64653;SDS011;51065;48.884;12.598;2023-02-15T14:10:59;25.15;;;8.75;;
64653;SDS011;51065;48.884;12.598;2023-02-15T14:16:10;27.45;;;8.98;;
64653;SDS011;51065;48.884;12.598;2023-02-15T14:18:52;26.45;;;9.68;;
64653;SDS011;51065;48.884;12.598;2023-02-15T14:21:24;23.23;;;8.35;;
64653;SDS011;51065;48.884;12.598;2023-02-15T14:29:15;41.15;;;18.88;;
64653;SDS011;51065;48.884;12.598;2023-02-15T14:31:55;55.03;;;24.13;;
64653;SDS011;51065;48.884;12.598;2023-02-15T14:34:31;29.63;;;11.88;;
64653;SDS011;51065;48.884;12.598;2023-02-15T14:37:04;31.87;;;10.93;;
64653;SDS011;51065;48.884;12.598;2023-02-15T14:39:38;23.50;;;8.48;;
64653;SDS011;51065;48.884;12.598;2023-02-15T14:42:34;27.83;;;9.52;;
64653;SDS011;51065;48.884;12.598;2023-02-15T14:45:18;22.88;;;8.43;;
64653;SDS011;51065;48.884;12.598;2023-02-15T14:48:12;21.58;;;7.68;;
64653;SDS011;51065;48.884;12.598;2023-02-15T14:50:45;26.55;;;9.38;;
64653;SDS011;51065;48.884;12.598;2023-02-15T14:58:34;23.85;;;8.50;;
64653;SDS011;51065;48.884;12.598;2023-02-15T15:01:06;23.73;;;8.35;;
64653;SDS011;51065;48.884;12.598;2023-02-15T15:03:34;26.85;;;10.25;;
64653;SDS011;51065;48.884;12.598;2023-02-15T15:06:01;22.40;;;7.95;;
64653;SDS011;51065;48.884;12.598;2023-02-15T15:08:33;23.73;;;8.43;;
64653;SDS011;51065;48.884;12.598;2023-02-15T15:13:53;22.88;;;8.43;;
64653;SDS011;51065;48.884;12.598;2023-02-15T15:19:11;24.90;;;8.85;;
64653;SDS011;51065;48.884;12.598;2023-02-15T15:32:41;27.60;;;9.07;;
64653;SDS011;51065;48.884;12.598;2023-02-15T15:38:29;22.38;;;8.68;;
64653;SDS011;51065;48.884;12.598;2023-02-15T15:41:32;22.77;;;8.65;;
64653;SDS011;51065;48.884;12.598;2023-02-15T15:47:13;27.20;;;8.88;;
64653;SDS011;51065;48.884;12.598;2023-02-15T15:49:57;23.73;;;8.48;;
64653;SDS011;51065;48.884;12.598;2023-02-15T15:52:23;22.63;;;8.20;;
64653;SDS011;51065;48.884;12.598;2023-02-15T15:54:55;21.63;;;7.65;;
64653;SDS011;51065;48.884;12.598;2023-02-15T15:57:28;23.23;;;8.65;;
64653;SDS011;51065;48.884;12.598;2023-02-15T15:59:58;19.58;;;7.35;;
64653;SDS011;51065;48.884;12.598;2023-02-15T16:02:24;25.33;;;9.32;;
64653;SDS011;51065;48.884;12.598;2023-02-15T16:04:50;27.67;;;9.75;;
64653;SDS011;51065;48.884;12.598;2023-02-15T16:12:24;23.98;;;9.05;;
64653;SDS011;51065;48.884;12.598;2023-02-15T16:14:55;24.65;;;8.27;;
64653;SDS011;51065;48.884;12.598;2023-02-15T16:17:25;24.63;;;8.52;;
64653;SDS011;51065;48.884;12.598;2023-02-15T16:19:57;25.52;;;10.02;;
64653;SDS011;51065;48.884;12.598;2023-02-15T16:22:27;29.17;;;10.48;;
64653;SDS011;51065;48.884;12.598;2023-02-15T16:24:57;24.10;;;9.35;;
64653;SDS011;51065;48.884;12.598;2023-02-15T16:27:51;28.05;;;9.98;;
64653;SDS011;51065;48.884;12.598;2023-02-15T16:32:47;26.48;;;9.75;;
64653;SDS011;51065;48.884;12.598;2023-02-15T16:35:17;24.40;;;9.70;;
64653;SDS011;51065;48.884;12.598;2023-02-15T16:37:44;24.98;;;8.80;;
64653;SDS011;51065;48.884;12.598;2023-02-15T16:42:48;28.13;;;11.43;;
64653;SDS011;51065;48.884;12.598;2023-02-15T16:45:19;29.33;;;11.60;;
64653;SDS011;51065;48.884;12.598;2023-02-15T16:47:48;26.38;;;9.90;;
64653;SDS011;51065;48.884;12.598;2023-02-15T16:50:22;26.83;;;10.23;;
64653;SDS011;51065;48.884;12.598;2023-02-15T16:52:50;25.10;;;9.80;;
64653;SDS011;51065;48.884;12.598;2023-02-15T16:55:19;24.65;;;9.88;;
64653;SDS011;51065;48.884;12.598;2023-02-15T16:57:47;26.27;;;8.52;;
64653;SDS011;51065;48.884;12.598;2023-02-15T17:00:21;30.27;;;9.98;;
64653;SDS011;51065;48.884;12.598;2023-02-15T17:02:53;23.85;;;9.35;;
64653;SDS011;51065;48.884;12.598;2023-02-15T17:05:24;27.33;;;12.00;;
64653;SDS011;51065;48.884;12.598;2023-02-15T17:10:42;25.33;;;8.93;;
64653;SDS011;51065;48.884;12.598;2023-02-15T17:13:12;24.92;;;9.90;;
64653;SDS011;51065;48.884;12.598;2023-02-15T17:15:40;26.25;;;9.57;;
64653;SDS011;51065;48.884;12.598;2023-02-15T17:18:11;31.13;;;11.75;;
64653;SDS011;51065;48.884;12.598;2023-02-15T17:20:43;25.13;;;9.60;;
64653;SDS011;51065;48.884;12.598;2023-02-15T17:25:50;26.25;;;9.48;;